Time;durP1;ratioP1;P1;durP2;ratioP2;P2;SDS_P1;SDS_P2;PMS_P1;PMS_P2;Temp;Humidity;BMP_temperature;BMP_pressure;BME280_temperature;BME280_humidity;BME280_pressure;Samples;Min_cycle;Max_cycle;Signal;HPM_P1;HPM_P2
2022/03/15 00:00:08;;;;;;;35.63;24.50;;;;;;;;;;6280319;28;20062;-73
2022/03/15 00:03:09;;;;;;;35.88;24.48;;;;;;;;;;6269750;28;20049;-74
2022/03/15 00:06:11;;;;;;;35.97;24.08;;;;;;;;;;6272397;28;20136;-73
2022/03/15 00:09:12;;;;;;;37.60;24.40;;;;;;;;;;6270948;28;20131;-74
2022/03/15 00:12:15;;;;;;;34.20;24.17;;;;;;;;;;6259205;28;20055;-74
2022/03/15 00:15:17;;;;;;;36.88;24.45;;;;;;;;;;6262526;28;20053;-70
2022/03/15 00:18:20;;;;;;;34.65;23.88;;;;;;;;;;6260571;28;20508;-73
2022/03/15 00:21:22;;;;;;;36.20;24.15;;;;;;;;;;6255157;28;20453;-73
2022/03/15 00:24:24;;;;;;;32.25;22.70;;;;;;;;;;6256576;28;20053;-74
2022/03/15 00:27:27;;;;;;;33.85;24.00;;;;;;;;;;6258411;28;20069;-73
2022/03/15 00:30:28;;;;;;;36.90;24.88;;;;;;;;;;6264864;28;20527;-74
2022/03/15 00:33:30;;;;;;;35.50;24.30;;;;;;;;;;6267910;28;20053;-71
2022/03/15 00:36:37;;;;;;;38.70;24.92;;;;;;;;;;6273266;28;20079;-72
2022/03/15 00:39:39;;;;;;;37.28;25.73;;;;;;;;;;6277961;28;20048;-72
2022/03/15 00:42:48;;;;;;;34.53;24.90;;;;;;;;;;6269102;28;20396;-71
2022/03/15 00:45:51;;;;;;;36.50;25.73;;;;;;;;;;6271407;28;20438;-72
2022/03/15 00:48:52;;;;;;;35.47;24.90;;;;;;;;;;6264003;28;20082;-72
2022/03/15 00:51:54;;;;;;;39.40;24.45;;;;;;;;;;6268433;28;20127;-71
2022/03/15 00:54:56;;;;;;;40.83;25.98;;;;;;;;;;6262850;28;20130;-73
2022/03/15 00:57:58;;;;;;;36.22;24.75;;;;;;;;;;6261832;28;20061;-71
2022/03/15 01:01:00;;;;;;;38.83;26.10;;;;;;;;;;6254520;28;20573;-71
2022/03/15 01:04:02;;;;;;;36.65;24.75;;;;;;;;;;6263439;28;20049;-72
2022/03/15 01:07:04;;;;;;;39.10;24.63;;;;;;;;;;6272850;28;20482;-72
2022/03/15 01:10:07;;;;;;;38.60;25.45;;;;;;;;;;6288130;28;20141;-70
2022/03/15 01:13:11;;;;;;;36.73;25.53;;;;;;;;;;6274028;28;20076;-72
2022/03/15 01:16:13;;;;;;;36.72;25.98;;;;;;;;;;6278007;28;20153;-72
2022/03/15 01:19:15;;;;;;;37.10;24.58;;;;;;;;;;6270864;28;20068;-72
2022/03/15 01:22:17;;;;;;;37.58;25.65;;;;;;;;;;6270902;28;20067;-71
2022/03/15 01:25:19;;;;;;;39.65;25.02;;;;;;;;;;6266892;28;20130;-71
2022/03/15 01:28:22;;;;;;;38.97;25.55;;;;;;;;;;6264597;28;20067;-72
2022/03/15 01:31:23;;;;;;;36.58;24.85;;;;;;;;;;6263848;28;20616;-72
2022/03/15 01:34:25;;;;;;;38.30;25.30;;;;;;;;;;6258525;28;20071;-71
2022/03/15 01:37:26;;;;;;;44.58;27.05;;;;;;;;;;6251966;28;20075;-73
2022/03/15 01:40:28;;;;;;;39.17;25.80;;;;;;;;;;6258742;28;20099;-72
2022/03/15 01:43:33;;;;;;;38.35;26.08;;;;;;;;;;6268804;28;20606;-73
2022/03/15 01:46:35;;;;;;;34.75;25.52;;;;;;;;;;6266379;28;20069;-72
2022/03/15 01:49:37;;;;;;;39.33;25.48;;;;;;;;;;6280849;28;20098;-73
2022/03/15 01:52:39;;;;;;;41.95;26.17;;;;;;;;;;6282649;28;20060;-73
2022/03/15 01:55:40;;;;;;;35.80;24.90;;;;;;;;;;6280360;28;20568;-73
2022/03/15 01:58:43;;;;;;;37.42;25.42;;;;;;;;;;6276356;28;20174;-73
2022/03/15 02:01:46;;;;;;;34.78;24.50;;;;;;;;;;6266852;28;20115;-73
2022/03/15 02:04:47;;;;;;;38.42;25.52;;;;;;;;;;6266696;28;20053;-73
2022/03/15 02:07:49;;;;;;;37.03;26.08;;;;;;;;;;6267751;28;20183;-73
2022/03/15 02:10:50;;;;;;;40.80;25.63;;;;;;;;;;6265793;28;20178;-72
2022/03/15 02:13:53;;;;;;;36.80;25.42;;;;;;;;;;6259445;28;20128;-73
2022/03/15 02:16:55;;;;;;;38.53;26.75;;;;;;;;;;6271893;28;20127;-73
2022/03/15 02:19:58;;;;;;;36.60;25.77;;;;;;;;;;6273991;28;20065;-73
2022/03/15 02:23:01;;;;;;;45.67;27.98;;;;;;;;;;6269467;28;20048;-73
2022/03/15 02:26:02;;;;;;;42.08;26.02;;;;;;;;;;6268814;28;20585;-73
2022/03/15 02:29:04;;;;;;;39.28;26.58;;;;;;;;;;6278023;28;20449;-73
2022/03/15 02:32:07;;;;;;;40.92;26.20;;;;;;;;;;6276976;28;20114;-73
2022/03/15 02:35:09;;;;;;;41.10;28.87;;;;;;;;;;6274542;28;20477;-72
2022/03/15 02:38:12;;;;;;;41.55;28.67;;;;;;;;;;6274387;28;20501;-73
2022/03/15 02:41:14;;;;;;;37.08;27.05;;;;;;;;;;6269225;28;20048;-73
2022/03/15 02:44:16;;;;;;;39.35;27.15;;;;;;;;;;6265535;28;20053;-72
2022/03/15 02:47:18;;;;;;;44.65;28.60;;;;;;;;;;6260763;28;20052;-73
2022/03/15 02:50:20;;;;;;;41.65;28.50;;;;;;;;;;6265025;28;20049;-72
2022/03/15 02:53:23;;;;;;;41.92;28.10;;;;;;;;;;6276889;28;20049;-73
2022/03/15 02:56:25;;;;;;;40.13;28.60;;;;;;;;;;6269415;28;20037;-73
2022/03/15 02:59:28;;;;;;;45.88;27.63;;;;;;;;;;6266562;28;20128;-73
2022/03/15 03:02:29;;;;;;;46.73;28.77;;;;;;;;;;6265758;28;20053;-72
2022/03/15 03:05:31;;;;;;;43.88;28.23;;;;;;;;;;6263497;28;20049;-73
2022/03/15 03:08:35;;;;;;;40.60;29.08;;;;;;;;;;6272937;28;20480;-74
2022/03/15 03:11:36;;;;;;;44.65;29.60;;;;;;;;;;6277283;28;20076;-73
2022/03/15 03:14:39;;;;;;;41.38;28.88;;;;;;;;;;6273178;28;20144;-73
2022/03/15 03:17:41;;;;;;;41.70;29.85;;;;;;;;;;6267648;28;20049;-73
2022/03/15 03:20:42;;;;;;;42.13;29.55;;;;;;;;;;6263653;28;20493;-73
2022/03/15 03:23:45;;;;;;;42.88;28.92;;;;;;;;;;6263895;28;20417;-73
2022/03/15 03:26:47;;;;;;;40.13;28.33;;;;;;;;;;6277239;28;20052;-73
2022/03/15 03:29:49;;;;;;;41.72;28.63;;;;;;;;;;6278353;28;20128;-73
2022/03/15 03:32:50;;;;;;;44.20;29.13;;;;;;;;;;6272387;28;20059;-73
2022/03/15 03:35:52;;;;;;;43.88;29.80;;;;;;;;;;6270522;28;20489;-73
2022/03/15 03:38:55;;;;;;;46.28;29.33;;;;;;;;;;6266555;28;20102;-73
2022/03/15 03:41:56;;;;;;;40.40;28.73;;;;;;;;;;6263078;28;20128;-74
2022/03/15 03:44:58;;;;;;;43.47;29.30;;;;;;;;;;6255220;28;20459;-74
2022/03/15 03:47:59;;;;;;;42.15;27.00;;;;;;;;;;6263409;28;20055;-73
2022/03/15 03:51:02;;;;;;;45.40;28.70;;;;;;;;;;6274878;28;20127;-74
2022/03/15 03:54:05;;;;;;;50.17;32.70;;;;;;;;;;6270522;28;20048;-74
2022/03/15 03:57:07;;;;;;;42.88;30.50;;;;;;;;;;6264928;28;20094;-73
2022/03/15 04:00:09;;;;;;;46.63;31.13;;;;;;;;;;6267875;28;20051;-73
2022/03/15 04:03:16;;;;;;;48.63;30.85;;;;;;;;;;6280978;28;20051;-73
2022/03/15 04:06:18;;;;;;;44.63;30.42;;;;;;;;;;6276233;28;20128;-73
2022/03/15 04:09:21;;;;;;;45.63;30.23;;;;;;;;;;6270283;28;20174;-72
2022/03/15 04:12:23;;;;;;;45.78;31.83;;;;;;;;;;6267671;28;20077;-73
2022/03/15 04:15:25;;;;;;;43.45;30.65;;;;;;;;;;6268372;28;20060;-73
2022/03/15 04:18:26;;;;;;;43.85;28.88;;;;;;;;;;6272964;28;20048;-73
2022/03/15 04:21:28;;;;;;;46.20;30.75;;;;;;;;;;6268175;28;20084;-73
2022/03/15 04:24:31;;;;;;;49.00;32.80;;;;;;;;;;6268132;28;20449;-73
2022/03/15 04:27:33;;;;;;;50.20;30.40;;;;;;;;;;6263897;28;20045;-73
2022/03/15 04:30:34;;;;;;;44.85;29.60;;;;;;;;;;6277536;28;20045;-73
2022/03/15 04:33:36;;;;;;;45.05;30.05;;;;;;;;;;6271316;28;20404;-73
2022/03/15 04:36:40;;;;;;;44.20;29.85;;;;;;;;;;6284914;28;20139;-72
2022/03/15 04:39:43;;;;;;;47.70;30.20;;;;;;;;;;6284247;28;20081;-73
2022/03/15 04:42:45;;;;;;;43.78;28.02;;;;;;;;;;6284117;28;20191;-73
2022/03/15 04:45:47;;;;;;;43.35;30.95;;;;;;;;;;6277801;28;20049;-73
2022/03/15 04:48:48;;;;;;;53.00;32.75;;;;;;;;;;6277868;28;20045;-73
2022/03/15 04:51:50;;;;;;;58.33;33.05;;;;;;;;;;6274690;28;20048;-73
2022/03/15 04:54:53;;;;;;;51.05;31.80;;;;;;;;;;6269634;28;20061;-73
2022/03/15 04:57:55;;;;;;;44.38;29.17;;;;;;;;;;6265557;28;20047;-73
2022/03/15 05:00:57;;;;;;;46.17;29.10;;;;;;;;;;6260341;28;20051;-73
2022/03/15 05:03:58;;;;;;;49.30;30.38;;;;;;;;;;6255440;28;20132;-73
2022/03/15 05:07:00;;;;;;;50.58;33.10;;;;;;;;;;6255871;28;20066;-73
2022/03/15 05:13:22;;;;;;;45.00;30.83;;;;;;;;;;6286908;28;20046;-74
2022/03/15 05:16:24;;;;;;;46.95;32.25;;;;;;;;;;6286999;28;20057;-73
2022/03/15 05:19:25;;;;;;;49.53;31.15;;;;;;;;;;6280180;28;20378;-74
2022/03/15 05:22:27;;;;;;;45.78;32.38;;;;;;;;;;6276211;28;20440;-73
2022/03/15 05:25:30;;;;;;;50.40;31.45;;;;;;;;;;6273894;28;20049;-72
2022/03/15 05:28:31;;;;;;;51.53;33.20;;;;;;;;;;6269058;28;20131;-73
2022/03/15 05:31:35;;;;;;;47.90;32.22;;;;;;;;;;6268225;28;20048;-73
2022/03/15 05:34:37;;;;;;;50.58;31.95;;;;;;;;;;6264966;28;20045;-73
2022/03/15 05:37:38;;;;;;;49.45;32.00;;;;;;;;;;6261774;28;20148;-73
2022/03/15 05:40:41;;;;;;;48.65;31.73;;;;;;;;;;6261316;28;20132;-74
2022/03/15 05:43:43;;;;;;;46.20;31.20;;;;;;;;;;6256859;28;20050;-73
2022/03/15 05:46:44;;;;;;;46.55;32.28;;;;;;;;;;6275065;28;20170;-73
2022/03/15 05:49:46;;;;;;;46.65;32.42;;;;;;;;;;6285870;28;20044;-74
2022/03/15 05:52:47;;;;;;;47.80;31.35;;;;;;;;;;6285195;28;20500;-73
2022/03/15 05:55:50;;;;;;;51.40;33.65;;;;;;;;;;6278537;28;20144;-73
2022/03/15 05:58:52;;;;;;;46.38;31.75;;;;;;;;;;6277893;28;20516;-73
2022/03/15 06:01:54;;;;;;;51.75;31.65;;;;;;;;;;6274837;28;20630;-73
2022/03/15 06:04:57;;;;;;;49.03;32.53;;;;;;;;;;6271829;28;20040;-73
2022/03/15 06:07:59;;;;;;;48.47;32.60;;;;;;;;;;6268024;28;20049;-72
2022/03/15 06:11:03;;;;;;;52.33;31.40;;;;;;;;;;6261988;28;20170;-73
2022/03/15 06:14:04;;;;;;;49.88;33.22;;;;;;;;;;6258829;28;20064;-73
2022/03/15 06:17:06;;;;;;;50.25;32.75;;;;;;;;;;6254586;28;20132;-73
2022/03/15 06:20:12;;;;;;;45.75;29.55;;;;;;;;;;6268014;28;20101;-72
2022/03/15 06:23:17;;;;;;;49.20;33.53;;;;;;;;;;6268908;28;20046;-73
2022/03/15 06:26:20;;;;;;;46.65;32.22;;;;;;;;;;6268323;28;20052;-71
2022/03/15 06:29:22;;;;;;;45.03;32.28;;;;;;;;;;6283237;28;20052;-69
2022/03/15 06:32:23;;;;;;;48.10;32.95;;;;;;;;;;6278418;28;20048;-71
2022/03/15 06:35:29;;;;;;;44.17;31.90;;;;;;;;;;6279490;28;20101;-70
2022/03/15 06:38:31;;;;;;;50.47;33.58;;;;;;;;;;6275027;28;20195;-72
2022/03/15 06:41:39;;;;;;;51.88;33.00;;;;;;;;;;6268715;28;20052;-73
2022/03/15 06:44:42;;;;;;;50.42;33.72;;;;;;;;;;6267781;28;20061;-73
2022/03/15 06:47:43;;;;;;;48.22;33.42;;;;;;;;;;6266723;28;20084;-73
2022/03/15 06:50:45;;;;;;;48.60;32.83;;;;;;;;;;6261743;28;20166;-74
2022/03/15 06:53:46;;;;;;;51.00;33.30;;;;;;;;;;6259119;28;20496;-73
2022/03/15 06:56:49;;;;;;;52.25;34.33;;;;;;;;;;6272533;28;20087;-73
2022/03/15 06:59:51;;;;;;;49.83;32.75;;;;;;;;;;6271512;28;20041;-74
2022/03/15 07:02:53;;;;;;;49.75;33.47;;;;;;;;;;6269214;28;20048;-73
2022/03/15 07:05:54;;;;;;;49.05;32.88;;;;;;;;;;6263806;28;20150;-72
2022/03/15 07:08:56;;;;;;;50.28;34.55;;;;;;;;;;6277154;28;20166;-79
2022/03/15 07:11:59;;;;;;;52.95;35.22;;;;;;;;;;6275750;28;20175;-76
2022/03/15 07:15:00;;;;;;;50.53;33.88;;;;;;;;;;6271146;28;20471;-79
2022/03/15 07:18:02;;;;;;;51.95;34.78;;;;;;;;;;6269389;28;20052;-79
2022/03/15 07:21:03;;;;;;;53.33;34.08;;;;;;;;;;6266367;28;20175;-80
2022/03/15 07:24:05;;;;;;;48.67;32.72;;;;;;;;;;6260133;28;20198;-80
2022/03/15 07:27:08;;;;;;;46.03;31.40;;;;;;;;;;6260215;28;20124;-79
2022/03/15 07:30:11;;;;;;;56.50;32.45;;;;;;;;;;6270843;28;20101;-79
2022/03/15 07:33:13;;;;;;;49.03;31.65;;;;;;;;;;6274627;28;20087;-79
2022/03/15 07:36:14;;;;;;;55.85;31.20;;;;;;;;;;6269909;28;20174;-79
2022/03/15 07:39:16;;;;;;;50.45;33.53;;;;;;;;;;6266021;28;20049;-80
2022/03/15 07:42:19;;;;;;;52.50;34.92;;;;;;;;;;6261555;28;20121;-78
2022/03/15 07:45:21;;;;;;;51.15;35.90;;;;;;;;;;6261432;28;20050;-80
2022/03/15 07:48:23;;;;;;;54.63;36.30;;;;;;;;;;6268787;28;20466;-79
2022/03/15 07:51:24;;;;;;;53.72;36.08;;;;;;;;;;6276302;28;20476;-81
2022/03/15 07:54:26;;;;;;;54.53;36.28;;;;;;;;;;6272735;28;20041;-80
2022/03/15 07:57:29;;;;;;;49.00;35.20;;;;;;;;;;6269705;28;20556;-80
2022/03/15 08:00:31;;;;;;;52.15;36.60;;;;;;;;;;6262016;28;20404;-80
2022/03/15 08:03:33;;;;;;;49.38;34.33;;;;;;;;;;6259754;28;20124;-80
2022/03/15 08:06:35;;;;;;;50.78;34.72;;;;;;;;;;6282847;28;20052;-81
2022/03/15 08:09:38;;;;;;;55.25;36.67;;;;;;;;;;6277416;28;20154;-80
2022/03/15 08:12:42;;;;;;;59.97;37.60;;;;;;;;;;6274511;28;20045;-80
2022/03/15 08:15:43;;;;;;;52.30;35.27;;;;;;;;;;6270978;28;20467;-80
2022/03/15 08:18:45;;;;;;;51.90;37.30;;;;;;;;;;6268271;28;20467;-80
2022/03/15 08:21:46;;;;;;;54.95;38.05;;;;;;;;;;6263935;28;20110;-80
2022/03/15 08:24:48;;;;;;;58.25;37.97;;;;;;;;;;6261382;28;20127;-81
2022/03/15 08:27:51;;;;;;;54.42;37.60;;;;;;;;;;6265815;28;20190;-79
2022/03/15 08:30:53;;;;;;;55.33;36.50;;;;;;;;;;6269608;28;20045;-80
2022/03/15 08:33:54;;;;;;;54.75;36.63;;;;;;;;;;6266091;28;20116;-80
2022/03/15 08:36:56;;;;;;;49.95;37.25;;;;;;;;;;6263608;28;20080;-81
2022/03/15 08:39:58;;;;;;;52.88;37.03;;;;;;;;;;6279302;28;20093;-78
2022/03/15 08:43:01;;;;;;;56.17;38.40;;;;;;;;;;6279968;28;20057;-80
2022/03/15 08:46:03;;;;;;;54.97;37.67;;;;;;;;;;6275749;28;20094;-80
2022/03/15 08:49:04;;;;;;;49.95;37.75;;;;;;;;;;6273184;28;20136;-80
2022/03/15 08:52:08;;;;;;;54.83;38.50;;;;;;;;;;6268403;28;20109;-80
2022/03/15 08:55:10;;;;;;;51.33;37.13;;;;;;;;;;6267880;28;20049;-79
2022/03/15 08:58:13;;;;;;;60.38;38.17;;;;;;;;;;6258403;28;20086;-80
2022/03/15 09:01:15;;;;;;;54.90;35.88;;;;;;;;;;6260158;28;20069;-80
2022/03/15 09:04:17;;;;;;;53.38;38.03;;;;;;;;;;6256255;28;20045;-80
2022/03/15 09:07:19;;;;;;;49.72;37.13;;;;;;;;;;6259927;28;20102;-80
2022/03/15 09:10:21;;;;;;;52.63;37.10;;;;;;;;;;6275473;28;20080;-79
2022/03/15 09:13:24;;;;;;;58.47;38.03;;;;;;;;;;6272098;28;20153;-80
2022/03/15 09:16:25;;;;;;;54.03;38.28;;;;;;;;;;6286984;28;20135;-80
2022/03/15 09:19:27;;;;;;;52.25;38.55;;;;;;;;;;6283818;28;20059;-80
2022/03/15 09:22:29;;;;;;;55.50;39.22;;;;;;;;;;6284560;28;20092;-82
2022/03/15 09:25:32;;;;;;;54.90;38.55;;;;;;;;;;6276056;28;20214;-81
2022/03/15 09:28:37;;;;;;;53.55;37.92;;;;;;;;;;6274431;28;20057;-83
2022/03/15 09:31:39;;;;;;;53.65;38.50;;;;;;;;;;6270304;28;20049;-80
2022/03/15 09:34:40;;;;;;;53.13;36.95;;;;;;;;;;6266921;28;20199;-79
2022/03/15 09:37:45;;;;;;;54.83;39.15;;;;;;;;;;6265030;28;20147;-82
2022/03/15 09:40:49;;;;;;;57.20;38.20;;;;;;;;;;6261522;28;20068;-82
2022/03/15 09:43:54;;;;;;;50.63;35.95;;;;;;;;;;6260315;28;21141;-81
2022/03/15 09:47:02;;;;;;;50.03;37.38;;;;;;;;;;6252802;28;20045;-82
2022/03/15 09:50:06;;;;;;;54.85;37.58;;;;;;;;;;6279882;28;20060;-81
2022/03/15 09:53:07;;;;;;;;;;;;;;;;;;6288580;28;20171;-81
2022/03/15 09:56:09;;;;;;;52.08;35.55;;;;;;;;;;6279555;28;20427;-82
2022/03/15 09:59:14;;;;;;;52.08;35.78;;;;;;;;;;6278161;28;20057;-84
2022/03/15 10:02:15;;;;;;;53.65;37.08;;;;;;;;;;6276557;28;20053;-87
2022/03/15 10:05:17;;;;;;;51.28;36.05;;;;;;;;;;6274400;28;20052;-83
2022/03/15 10:08:20;;;;;;;50.13;37.63;;;;;;;;;;6269726;28;20106;-79
2022/03/15 10:11:23;;;;;;;55.72;37.88;;;;;;;;;;6266771;28;20461;-80
2022/03/15 10:14:26;;;;;;;51.85;37.67;;;;;;;;;;6264078;28;20057;-81
2022/03/15 10:17:28;;;;;;;51.60;38.20;;;;;;;;;;6259012;28;20151;-81
2022/03/15 10:20:31;;;;;;;51.97;38.50;;;;;;;;;;6261551;28;20482;-82
2022/03/15 10:23:37;;;;;;;50.65;38.15;;;;;;;;;;6255840;28;20068;-81
2022/03/15 10:26:39;;;;;;;52.85;38.50;;;;;;;;;;6270770;28;20132;-83
2022/03/15 10:29:44;;;;;;;53.53;39.40;;;;;;;;;;6285564;28;20053;-83
2022/03/15 10:32:46;;;;;;;52.10;38.33;;;;;;;;;;6284998;28;20060;-82
2022/03/15 10:35:49;;;;;;;49.53;38.60;;;;;;;;;;6281132;28;20123;-82
2022/03/15 10:38:53;;;;;;;51.50;38.88;;;;;;;;;;6276911;28;20041;-81
2022/03/15 10:41:56;;;;;;;53.30;38.45;;;;;;;;;;6275388;28;20389;-82
2022/03/15 10:44:59;;;;;;;51.65;38.60;;;;;;;;;;6269900;28;20185;-80
2022/03/15 10:48:01;;;;;;;54.40;40.37;;;;;;;;;;6266504;28;20482;-83
2022/03/15 10:51:05;;;;;;;52.38;40.65;;;;;;;;;;6235335;28;20470;-80
2022/03/15 10:54:08;;;;;;;61.50;40.92;;;;;;;;;;6260201;28;20049;-82
2022/03/15 10:57:10;;;;;;;52.35;39.80;;;;;;;;;;6261243;28;20542;-72
2022/03/15 11:00:15;;;;;;;59.60;40.75;;;;;;;;;;6269047;28;20041;-79
2022/03/15 11:03:23;;;;;;;50.67;40.75;;;;;;;;;;6268378;28;20049;-81
2022/03/15 11:06:31;;;;;;;56.42;40.05;;;;;;;;;;6263558;28;20397;-81
2022/03/15 11:09:34;;;;;;;55.85;41.90;;;;;;;;;;6285417;28;20488;-81
2022/03/15 11:12:36;;;;;;;55.85;40.78;;;;;;;;;;6276416;28;20045;-80
2022/03/15 11:15:42;;;;;;;58.58;42.28;;;;;;;;;;6276098;28;20396;-78
2022/03/15 11:18:43;;;;;;;55.60;40.97;;;;;;;;;;6270953;28;20053;-81
2022/03/15 11:21:46;;;;;;;55.78;41.00;;;;;;;;;;6269066;28;20132;-82
2022/03/15 11:24:53;;;;;;;58.00;41.60;;;;;;;;;;6261857;28;20138;-84
2022/03/15 11:27:55;;;;;;;164.95;115.43;;;;;;;;;;6263253;28;20045;-77
2022/03/15 11:30:59;;;;;;;109.22;70.30;;;;;;;;;;6259998;28;20049;-80
2022/03/15 11:34:02;;;;;;;138.77;91.45;;;;;;;;;;6257089;28;20049;-82
2022/03/15 11:37:05;;;;;;;100.95;71.13;;;;;;;;;;6273294;28;20048;-86
2022/03/15 11:40:09;;;;;;;60.03;44.10;;;;;;;;;;6263623;28;20437;-87
2022/03/15 11:43:20;;;;;;;74.88;50.58;;;;;;;;;;6263684;28;20331;-77
2022/03/15 11:46:26;;;;;;;56.58;39.03;;;;;;;;;;6263606;28;20067;-75
2022/03/15 11:49:36;;;;;;;58.63;40.08;;;;;;;;;;6278966;28;20135;-73
2022/03/15 11:52:49;;;;;;;56.05;38.55;;;;;;;;;;6278617;28;20057;-72
2022/03/15 11:55:54;;;;;;;54.80;38.10;;;;;;;;;;6274807;28;20107;-75
2022/03/15 11:58:58;;;;;;;51.63;35.22;;;;;;;;;;6263988;28;20091;-74
2022/03/15 12:02:04;;;;;;;58.58;37.80;;;;;;;;;;6263970;28;20403;-75
2022/03/15 12:05:17;;;;;;;53.35;35.45;;;;;;;;;;6264942;28;20479;-74
2022/03/15 12:08:20;;;;;;;54.92;36.55;;;;;;;;;;6265511;28;20044;-76
2022/03/15 12:11:29;;;;;;;55.30;36.85;;;;;;;;;;6277576;28;20068;-73
2022/03/15 12:14:40;;;;;;;53.67;36.08;;;;;;;;;;6269619;28;20041;-75
2022/03/15 12:17:43;;;;;;;52.97;35.55;;;;;;;;;;6267361;28;20416;-75
2022/03/15 12:20:46;;;;;;;57.53;36.13;;;;;;;;;;6264116;28;20046;-75
2022/03/15 12:23:50;;;;;;;52.90;35.53;;;;;;;;;;6261822;28;20094;-75
2022/03/15 12:27:03;;;;;;;55.97;36.60;;;;;;;;;;6262389;28;20064;-74
2022/03/15 12:30:08;;;;;;;54.13;35.08;;;;;;;;;;6271528;28;20041;-76
2022/03/15 12:33:11;;;;;;;52.97;34.75;;;;;;;;;;6271894;28;20055;-74
2022/03/15 12:36:17;;;;;;;59.07;37.53;;;;;;;;;;6271465;28;20132;-75
2022/03/15 12:39:21;;;;;;;53.22;35.92;;;;;;;;;;6272495;28;20062;-74
2022/03/15 12:42:24;;;;;;;58.10;37.45;;;;;;;;;;6264691;28;20098;-75
2022/03/15 12:45:25;;;;;;;58.65;36.08;;;;;;;;;;6280306;28;20400;-74
2022/03/15 12:48:32;;;;;;;55.95;35.60;;;;;;;;;;6268252;28;20049;-75
2022/03/15 12:51:39;;;;;;;52.55;36.35;;;;;;;;;;6273898;28;20056;-74
2022/03/15 12:54:41;;;;;;;56.65;37.42;;;;;;;;;;6274304;28;20097;-74
2022/03/15 12:57:44;;;;;;;55.70;36.38;;;;;;;;;;6270854;28;20102;-74
2022/03/15 13:00:46;;;;;;;58.92;38.58;;;;;;;;;;6262714;28;20102;-74
2022/03/15 13:03:49;;;;;;;54.58;37.08;;;;;;;;;;6264555;28;20167;-74
2022/03/15 13:06:51;;;;;;;55.77;38.30;;;;;;;;;;6261331;28;20496;-74
2022/03/15 13:09:58;;;;;;;58.60;38.72;;;;;;;;;;6278085;28;20059;-74
2022/03/15 13:13:00;;;;;;;56.15;38.35;;;;;;;;;;6270970;28;20045;-73
2022/03/15 13:16:08;;;;;;;59.88;39.17;;;;;;;;;;6269789;28;20444;-75
2022/03/15 13:19:11;;;;;;;60.42;40.00;;;;;;;;;;6276712;28;20056;-73
2022/03/15 13:22:13;;;;;;;58.25;40.22;;;;;;;;;;6280554;28;20038;-74
2022/03/15 13:25:14;;;;;;;60.35;40.47;;;;;;;;;;6274639;28;20052;-73
2022/03/15 13:28:17;;;;;;;58.65;39.05;;;;;;;;;;6276307;28;20139;-74
2022/03/15 13:31:21;;;;;;;58.53;38.57;;;;;;;;;;6270240;28;20128;-75
2022/03/15 13:34:25;;;;;;;55.03;38.05;;;;;;;;;;6270202;28;20504;-74
2022/03/15 13:37:27;;;;;;;59.55;37.92;;;;;;;;;;6267316;28;20394;-73
2022/03/15 13:40:29;;;;;;;56.42;39.33;;;;;;;;;;6262495;28;20041;-75
2022/03/15 13:43:32;;;;;;;58.25;39.67;;;;;;;;;;6259069;28;20053;-74
2022/03/15 13:46:34;;;;;;;60.72;38.92;;;;;;;;;;6254751;28;20057;-74
2022/03/15 13:49:39;;;;;;;54.95;38.50;;;;;;;;;;6271733;28;20382;-73
2022/03/15 13:52:42;;;;;;;59.05;39.65;;;;;;;;;;6273145;28;20179;-73
2022/03/15 13:55:44;;;;;;;60.05;38.72;;;;;;;;;;6284565;28;20052;-73
2022/03/15 13:58:59;;;;;;;57.45;39.50;;;;;;;;;;6282678;28;20045;-74
2022/03/15 14:02:02;;;;;;;59.17;39.67;;;;;;;;;;6273331;28;20042;-74
2022/03/15 14:05:07;;;;;;;60.13;38.17;;;;;;;;;;6270876;28;20125;-70
2022/03/15 14:08:12;;;;;;;59.60;38.40;;;;;;;;;;6266363;28;20049;-72
2022/03/15 14:11:14;;;;;;;60.50;39.45;;;;;;;;;;6264854;28;20106;-73
2022/03/15 14:14:23;;;;;;;61.03;38.33;;;;;;;;;;6260935;28;20048;-75
2022/03/15 14:17:26;;;;;;;250.05;145.40;;;;;;;;;;6256318;28;20196;-74
2022/03/15 14:20:32;;;;;;;69.72;45.83;;;;;;;;;;6257754;28;20049;-77
2022/03/15 14:23:34;;;;;;;100.63;61.13;;;;;;;;;;6250688;28;20049;-80
2022/03/15 14:26:35;;;;;;;82.88;52.25;;;;;;;;;;6247013;28;20093;-76
2022/03/15 14:29:37;;;;;;;88.55;53.60;;;;;;;;;;6275435;28;20123;-75
2022/03/15 14:32:49;;;;;;;97.35;60.95;;;;;;;;;;6278811;28;20570;-74
2022/03/15 14:35:59;;;;;;;61.53;40.28;;;;;;;;;;6278002;28;20053;-74
2022/03/15 14:39:10;;;;;;;61.15;37.78;;;;;;;;;;6270852;28;20413;-73
2022/03/15 14:42:12;;;;;;;63.42;37.33;;;;;;;;;;6269271;28;20049;-73
2022/03/15 14:45:14;;;;;;;57.13;35.45;;;;;;;;;;6269381;28;20174;-70
2022/03/15 14:48:24;;;;;;;57.45;36.35;;;;;;;;;;6264247;28;20070;-73
2022/03/15 14:51:26;;;;;;;55.30;35.17;;;;;;;;;;6261820;28;20050;-68
2022/03/15 14:54:29;;;;;;;58.92;35.55;;;;;;;;;;6255963;28;20656;-76
2022/03/15 14:57:31;;;;;;;60.28;36.00;;;;;;;;;;6230761;28;20053;-73
2022/03/15 15:00:33;;;;;;;56.22;35.63;;;;;;;;;;6255561;28;20124;-72
2022/03/15 15:03:35;;;;;;;53.50;35.13;;;;;;;;;;6259355;28;20153;-71
2022/03/15 15:06:38;;;;;;;55.05;35.42;;;;;;;;;;6266551;28;20123;-72
2022/03/15 15:09:39;;;;;;;56.40;34.58;;;;;;;;;;6282012;28;20453;-71
2022/03/15 15:12:43;;;;;;;54.75;34.20;;;;;;;;;;6282582;28;20132;-72
2022/03/15 15:15:47;;;;;;;53.70;35.40;;;;;;;;;;6276740;28;20056;-76
2022/03/15 15:18:48;;;;;;;55.72;35.22;;;;;;;;;;6275221;28;20688;-72
2022/03/15 15:21:54;;;;;;;68.95;42.58;;;;;;;;;;6270804;28;20124;-77
2022/03/15 15:24:56;;;;;;;56.35;36.67;;;;;;;;;;6265930;28;20049;-74
2022/03/15 15:27:57;;;;;;;75.57;36.95;;;;;;;;;;6262383;28;20052;-69
2022/03/15 15:30:59;;;;;;;60.38;34.58;;;;;;;;;;6259331;28;20433;-72
2022/03/15 15:34:00;;;;;;;56.90;35.63;;;;;;;;;;6257077;28;20136;-73
2022/03/15 15:37:04;;;;;;;58.58;35.10;;;;;;;;;;6253623;28;20088;-73
2022/03/15 15:40:07;;;;;;;60.67;36.00;;;;;;;;;;6268943;28;20160;-72
2022/03/15 15:43:10;;;;;;;55.13;34.67;;;;;;;;;;6265455;28;20128;-73
2022/03/15 15:46:20;;;;;;;56.53;35.70;;;;;;;;;;6263566;28;20210;-71
2022/03/15 15:49:22;;;;;;;56.75;34.95;;;;;;;;;;6278034;28;20044;-72
2022/03/15 15:52:26;;;;;;;55.95;34.67;;;;;;;;;;6278902;28;20052;-73
2022/03/15 15:55:28;;;;;;;55.13;33.30;;;;;;;;;;6274067;28;20057;-73
2022/03/15 15:58:29;;;;;;;54.65;34.03;;;;;;;;;;6269266;28;20049;-72
2022/03/15 16:01:32;;;;;;;54.08;33.88;;;;;;;;;;6266070;28;20048;-74
2022/03/15 16:04:33;;;;;;;53.17;33.53;;;;;;;;;;6263544;28;20191;-73
2022/03/15 16:07:45;;;;;;;54.40;34.67;;;;;;;;;;6262138;28;20060;-72
2022/03/15 16:10:47;;;;;;;53.53;33.22;;;;;;;;;;6260052;28;20424;-73
2022/03/15 16:13:48;;;;;;;54.72;33.85;;;;;;;;;;6270408;28;20041;-72
2022/03/15 16:16:50;;;;;;;55.03;34.05;;;;;;;;;;6276178;28;20123;-71
2022/03/15 16:19:51;;;;;;;56.38;34.20;;;;;;;;;;6273133;28;20093;-71
2022/03/15 16:22:55;;;;;;;52.78;33.90;;;;;;;;;;6269610;28;20176;-72
2022/03/15 16:25:57;;;;;;;53.15;35.17;;;;;;;;;;6266056;28;20122;-71
2022/03/15 16:28:59;;;;;;;54.03;34.35;;;;;;;;;;6278776;28;20481;-72
2022/03/15 16:32:01;;;;;;;61.08;34.92;;;;;;;;;;6278438;28;20074;-72
2022/03/15 16:35:02;;;;;;;57.95;35.42;;;;;;;;;;6273285;28;20331;-72
2022/03/15 16:38:05;;;;;;;51.95;34.42;;;;;;;;;;6272022;28;20127;-72
2022/03/15 16:41:07;;;;;;;55.03;35.38;;;;;;;;;;6269312;28;20134;-72
2022/03/15 16:44:09;;;;;;;54.00;34.25;;;;;;;;;;6268620;28;20123;-71
2022/03/15 16:47:11;;;;;;;55.03;33.53;;;;;;;;;;6265949;28;20188;-71
2022/03/15 16:50:13;;;;;;;63.40;33.90;;;;;;;;;;6280247;28;20045;-72
2022/03/15 16:53:16;;;;;;;56.80;33.72;;;;;;;;;;6277702;28;20060;-72
2022/03/15 16:56:17;;;;;;;58.00;33.28;;;;;;;;;;6270345;28;20083;-71
2022/03/15 16:59:19;;;;;;;54.00;33.10;;;;;;;;;;6270344;28;20048;-72
2022/03/15 17:02:21;;;;;;;51.63;33.03;;;;;;;;;;6263204;28;20148;-72
2022/03/15 17:08:43;;;;;;;54.50;33.17;;;;;;;;;;6270567;28;20041;-72
2022/03/15 17:11:44;;;;;;;55.50;33.38;;;;;;;;;;6270672;28;20063;-72
2022/03/15 17:14:46;;;;;;;55.67;33.78;;;;;;;;;;6270955;28;20068;-75
2022/03/15 17:17:48;;;;;;;51.15;30.45;;;;;;;;;;6270706;28;20416;-74
2022/03/15 17:20:55;;;;;;;53.55;32.05;;;;;;;;;;6265783;28;20128;-73
2022/03/15 17:23:58;;;;;;;51.78;31.00;;;;;;;;;;6274678;28;20055;-75
2022/03/15 17:27:00;;;;;;;56.53;32.30;;;;;;;;;;6276440;28;20382;-72
2022/03/15 17:30:10;;;;;;;56.53;31.58;;;;;;;;;;6274269;28;20080;-74
2022/03/15 17:33:12;;;;;;;52.78;30.08;;;;;;;;;;6269554;28;20045;-76
2022/03/15 17:36:14;;;;;;;54.97;30.80;;;;;;;;;;6265773;28;20061;-72
2022/03/15 17:39:18;;;;;;;50.20;30.67;;;;;;;;;;6264948;28;20075;-74
2022/03/15 17:42:22;;;;;;;;;;;;;;;;;;6264460;28;20079;-73
2022/03/15 17:45:25;;;;;;;49.63;29.58;;;;;;;;;;6255139;28;20277;-76
2022/03/15 17:48:28;;;;;;;55.28;30.35;;;;;;;;;;6262836;28;20458;-70
2022/03/15 17:51:30;;;;;;;49.08;30.20;;;;;;;;;;6269914;28;20059;-73